Time,TemperatureF,DewpointF,PressureIn,WindDirection,WindDirectionDegrees,WindSpeedMPH,WindSpeedGustMPH,Humidity,HourlyPrecipIn,Conditions,Clouds,dailyrainin,SoftwareType,DateUTC
2013-02-05 00:00:00,23.0,0.0,-100.00,NNW,347,5.0,14.0,36,-99.99,,,-99.99,,2013-02-05 07:00:00,
2013-02-05 00:42:00,23.0,0.0,-100.00,NNW,347,5.0,14.0,36,-99.99,,,-99.99,,2013-02-05 07:42:00,
2013-02-05 00:52:00,23.0,0.0,-100.00,NNW,347,5.0,14.0,36,-99.99,,,-99.99,,2013-02-05 07:52:00,
2013-02-05 01:00:00,23.0,2.0,-100.00,North,357,3.0,10.0,39,-99.99,,,-99.99,,2013-02-05 08:00:00,
2013-02-05 01:42:00,23.0,2.0,-100.00,North,357,3.0,10.0,39,-99.99,,,-99.99,,2013-02-05 08:42:00,
2013-02-05 01:52:00,23.0,2.0,-100.00,North,357,3.0,10.0,39,-99.99,,,-99.99,,2013-02-05 08:52:00,
2013-02-05 02:00:00,23.0,2.0,-100.00,NE,34,6.0,11.0,38,-99.99,,,-99.99,,2013-02-05 09:00:00,
2013-02-05 02:42:00,23.0,2.0,-100.00,NE,34,6.0,11.0,38,-99.99,,,-99.99,,2013-02-05 09:42:00,
2013-02-05 02:52:00,23.0,2.0,-100.00,NE,34,6.0,11.0,38,-99.99,,,-99.99,,2013-02-05 09:52:00,
2013-02-05 03:00:00,23.0,0.0,-100.00,North,359,7.0,21.0,36,-99.99,,,-99.99,,2013-02-05 10:00:00,
2013-02-05 03:42:00,23.0,0.0,-100.00,North,359,7.0,21.0,36,-99.99,,,-99.99,,2013-02-05 10:42:00,
2013-02-05 03:52:00,23.0,0.0,-100.00,North,359,7.0,21.0,36,-99.99,,,-99.99,,2013-02-05 10:52:00,
2013-02-05 04:00:00,24.0,-5.0,-100.00,North,355,8.0,21.0,27,-99.99,,,-99.99,,2013-02-05 11:00:00,
2013-02-05 04:42:00,24.0,-5.0,-100.00,North,355,8.0,21.0,27,-99.99,,,-99.99,,2013-02-05 11:42:00,
2013-02-05 04:52:00,24.0,-5.0,-100.00,North,355,8.0,21.0,27,-99.99,,,-99.99,,2013-02-05 11:52:00,
2013-02-05 05:00:00,23.0,-3.0,-100.00,NE,53,8.0,16.0,32,-99.99,,,-99.99,,2013-02-05 12:00:00,
2013-02-05 05:42:00,23.0,-3.0,-100.00,NE,53,8.0,16.0,32,-99.99,,,-99.99,,2013-02-05 12:42:00,
2013-02-05 05:52:00,23.0,-3.0,-100.00,NE,53,8.0,16.0,32,-99.99,,,-99.99,,2013-02-05 12:52:00,
2013-02-05 06:00:00,23.0,-4.0,-100.00,NNE,17,13.0,18.0,30,-99.99,,,-99.99,,2013-02-05 13:00:00,
2013-02-05 06:42:00,23.0,-4.0,-100.00,NNE,17,13.0,18.0,30,-99.99,,,-99.99,,2013-02-05 13:42:00,
2013-02-05 06:52:00,23.0,-4.0,-100.00,NNE,17,13.0,18.0,30,-99.99,,,-99.99,,2013-02-05 13:52:00,
2013-02-05 07:00:00,22.0,-6.0,-100.00,NE,36,7.0,10.0,28,-99.99,,,-99.99,,2013-02-05 14:00:00,
2013-02-05 07:42:00,22.0,-6.0,-100.00,NE,36,7.0,10.0,28,-99.99,,,-99.99,,2013-02-05 14:42:00,
2013-02-05 07:52:00,22.0,-6.0,-100.00,NE,36,7.0,10.0,28,-99.99,,,-99.99,,2013-02-05 14:52:00,
2013-02-05 08:00:00,25.0,-10.0,-100.00,NNE,25,7.0,14.0,20,-99.99,,,-99.99,,2013-02-05 15:00:00,
2013-02-05 08:42:00,25.0,-10.0,-100.00,NNE,25,7.0,14.0,20,-99.99,,,-99.99,,2013-02-05 15:42:00,
2013-02-05 08:52:00,25.0,-10.0,-100.00,NNE,25,7.0,14.0,20,-99.99,,,-99.99,,2013-02-05 15:52:00,
2013-02-05 09:00:00,28.0,-12.0,-100.00,NNE,31,4.0,7.0,16,-99.99,,,-99.99,,2013-02-05 16:00:00,
2013-02-05 09:42:00,28.0,-12.0,-100.00,NNE,31,4.0,7.0,16,-99.99,,,-99.99,,2013-02-05 16:42:00,
2013-02-05 09:52:00,28.0,-12.0,-100.00,NNE,31,4.0,7.0,16,-99.99,,,-99.99,,2013-02-05 16:52:00,
2013-02-05 10:00:00,29.0,-9.0,-100.00,NE,43,5.0,9.0,18,-99.99,,,-99.99,,2013-02-05 17:00:00,
2013-02-05 10:42:00,29.0,-9.0,-100.00,NE,43,5.0,9.0,18,-99.99,,,-99.99,,2013-02-05 17:42:00,
2013-02-05 10:52:00,29.0,-9.0,-100.00,NE,43,5.0,9.0,18,-99.99,,,-99.99,,2013-02-05 17:52:00,
2013-02-05 11:00:00,34.0,-7.0,-100.00,East,84,2.0,6.0,16,-99.99,,,-99.99,,2013-02-05 18:00:00,
2013-02-05 11:42:00,34.0,-7.0,-100.00,East,84,2.0,6.0,16,-99.99,,,-99.99,,2013-02-05 18:42:00,
2013-02-05 11:52:00,34.0,-7.0,-100.00,East,84,2.0,6.0,16,-99.99,,,-99.99,,2013-02-05 18:52:00,
2013-02-05 12:00:00,36.0,1.0,-100.00,South,175,4.0,13.0,22,-99.99,,,-99.99,,2013-02-05 19:00:00,
2013-02-05 12:42:00,36.0,1.0,-100.00,South,175,4.0,13.0,22,-99.99,,,-99.99,,2013-02-05 19:42:00,
2013-02-05 12:52:00,36.0,1.0,-100.00,South,175,4.0,13.0,22,-99.99,,,-99.99,,2013-02-05 19:52:00,
2013-02-05 13:00:00,34.0,0.0,-100.00,SSW,199,11.0,18.0,23,-99.99,,,-99.99,,2013-02-05 20:00:00,
2013-02-05 13:42:00,34.0,0.0,-100.00,SSW,199,11.0,18.0,23,-99.99,,,-99.99,,2013-02-05 20:42:00,
2013-02-05 13:52:00,34.0,0.0,-100.00,SSW,199,11.0,18.0,23,-99.99,,,-99.99,,2013-02-05 20:52:00,
2013-02-05 14:00:00,33.0,0.0,-100.00,SSW,204,17.0,24.0,24,-99.99,,,-99.99,,2013-02-05 21:00:00,
2013-02-05 14:42:00,33.0,0.0,-100.00,SSW,204,17.0,24.0,24,-99.99,,,-99.99,,2013-02-05 21:42:00,
2013-02-05 14:52:00,33.0,0.0,-100.00,SSW,204,17.0,24.0,24,-99.99,,,-99.99,,2013-02-05 21:52:00,
2013-02-05 15:00:00,32.0,-2.0,-100.00,SW,214,18.0,27.0,23,-99.99,,,-99.99,,2013-02-05 22:00:00,
2013-02-05 15:42:00,32.0,-2.0,-100.00,SW,214,18.0,27.0,23,-99.99,,,-99.99,,2013-02-05 22:42:00,
2013-02-05 15:52:00,32.0,-2.0,-100.00,SW,214,18.0,27.0,23,-99.99,,,-99.99,,2013-02-05 22:52:00,
2013-02-05 16:00:00,30.0,-1.0,-100.00,SSW,209,19.0,27.0,25,-99.99,,,-99.99,,2013-02-05 23:00:00,
2013-02-05 16:42:00,30.0,-1.0,-100.00,SSW,209,19.0,27.0,25,-99.99,,,-99.99,,2013-02-05 23:42:00,
2013-02-05 16:53:00,30.0,-1.0,-100.00,SSW,209,19.0,27.0,25,-99.99,,,-99.99,,2013-02-05 23:53:00,
2013-02-05 17:00:00,29.0,2.0,-100.00,SW,221,14.0,22.0,30,-99.99,,,-99.99,,2013-02-06 00:00:00,
2013-02-05 17:42:00,29.0,2.0,-100.00,SW,221,14.0,22.0,30,-99.99,,,-99.99,,2013-02-06 00:42:00,
2013-02-05 17:52:00,29.0,2.0,-100.00,SW,221,14.0,22.0,30,-99.99,,,-99.99,,2013-02-06 00:52:00,
2013-02-05 18:00:00,26.0,2.0,-100.00,SW,227,10.0,17.0,35,-99.99,,,-99.99,,2013-02-06 01:00:00,
2013-02-05 18:42:00,26.0,2.0,-100.00,SW,227,10.0,17.0,35,-99.99,,,-99.99,,2013-02-06 01:42:00,
2013-02-05 18:53:00,26.0,2.0,-100.00,SW,227,10.0,17.0,35,-99.99,,,-99.99,,2013-02-06 01:53:00,
2013-02-05 19:00:00,23.0,1.0,-100.00,SW,234,11.0,19.0,38,-99.99,,,-99.99,,2013-02-06 02:00:00,
2013-02-05 19:42:00,23.0,1.0,-100.00,SW,234,11.0,19.0,38,-99.99,,,-99.99,,2013-02-06 02:42:00,
2013-02-05 19:52:00,23.0,1.0,-100.00,SW,234,11.0,19.0,38,-99.99,,,-99.99,,2013-02-06 02:52:00,
2013-02-05 20:00:00,23.0,9.0,-100.00,SW,227,14.0,24.0,55,-99.99,,,-99.99,,2013-02-06 03:00:00,
2013-02-05 20:42:00,23.0,9.0,-100.00,SW,227,14.0,24.0,55,-99.99,,,-99.99,,2013-02-06 03:42:00,
2013-02-05 20:53:00,23.0,9.0,-100.00,SW,227,14.0,24.0,55,-99.99,,,-99.99,,2013-02-06 03:53:00,
2013-02-05 21:00:00,22.0,12.0,-100.00,SW,227,16.0,27.0,65,-99.99,,,-99.99,,2013-02-06 04:00:00,
2013-02-05 21:42:00,22.0,12.0,-100.00,SW,227,16.0,27.0,65,-99.99,,,-99.99,,2013-02-06 04:42:00,
2013-02-05 21:52:00,22.0,12.0,-100.00,SW,227,16.0,27.0,65,-99.99,,,-99.99,,2013-02-06 04:52:00,
2013-02-05 22:00:00,22.0,13.0,-100.00,SW,228,16.0,27.0,67,-99.99,,,-99.99,,2013-02-06 05:00:00,
2013-02-05 22:42:00,22.0,13.0,-100.00,SW,228,16.0,27.0,67,-99.99,,,-99.99,,2013-02-06 05:42:00,
2013-02-05 22:53:00,22.0,13.0,-100.00,SW,228,16.0,27.0,67,-99.99,,,-99.99,,2013-02-06 05:53:00,
2013-02-05 23:00:00,21.0,13.0,-100.00,SW,235,16.0,24.0,68,-99.99,,,-99.99,,2013-02-06 06:00:00,
2013-02-05 23:42:00,21.0,13.0,-100.00,SW,235,16.0,24.0,68,-99.99,,,-99.99,,2013-02-06 06:42:00,
2013-02-05 23:52:00,21.0,13.0,-100.00,SW,235,16.0,24.0,68,-99.99,,,-99.99,,2013-02-06 06:52:00,